Time;durP1;ratioP1;P1;durP2;ratioP2;P2;SDS_P1;SDS_P2;PMS_P1;PMS_P2;Temp;Humidity;BMP_temperature;BMP_pressure;BME280_temperature;BME280_humidity;BME280_pressure;Samples;Min_cycle;Max_cycle;Signal;HPM_P1;HPM_P2
2022/05/31 00:02:04;;;;;;;6.17;2.50;;;12.40;65.20;;;;;;4877554;29;20489;-73
2022/05/31 00:04:32;;;;;;;4.90;2.20;;;12.40;65.10;;;;;;4880706;29;20578;-72
2022/05/31 00:07:04;;;;;;;6.07;2.23;;;12.30;65.10;;;;;;4875539;29;20475;-73
2022/05/31 00:09:32;;;;;;;5.90;2.57;;;12.20;65.10;;;;;;4877656;29;20502;-73
2022/05/31 00:12:00;;;;;;;5.00;2.87;;;12.20;65.30;;;;;;4883876;29;20470;-73
2022/05/31 00:14:28;;;;;;;4.80;2.30;;;12.10;65.40;;;;;;4883478;29;20482;-73
2022/05/31 00:16:56;;;;;;;6.30;1.90;;;12.10;65.40;;;;;;4879998;29;20614;-73
2022/05/31 00:19:24;;;;;;;5.20;2.27;;;12.10;65.40;;;;;;4867338;29;20591;-74
2022/05/31 00:22:01;;;;;;;4.53;2.40;;;12.10;65.40;;;;;;4879609;29;20482;-74
2022/05/31 00:24:30;;;;;;;5.60;2.73;;;12.00;65.40;;;;;;4883225;29;20482;-73
2022/05/31 00:26:59;;;;;;;5.63;2.37;;;12.00;65.40;;;;;;4864142;29;20462;-73
2022/05/31 00:29:27;;;;;;;4.30;2.33;;;12.00;65.30;;;;;;4869038;29;21020;-73
2022/05/31 00:31:55;;;;;;;4.60;2.03;;;11.90;65.40;;;;;;4886244;29;20505;-74
2022/05/31 00:34:23;;;;;;;4.40;2.20;;;11.90;65.60;;;;;;4881115;29;20495;-74
2022/05/31 00:36:51;;;;;;;4.80;2.30;;;11.90;65.60;;;;;;4888472;29;20462;-74
2022/05/31 00:39:19;;;;;;;10.10;3.43;;;11.90;65.50;;;;;;4855961;29;20484;-74
2022/05/31 00:42:00;;;;;;;4.30;2.40;;;11.80;65.50;;;;;;4885521;29;20468;-74
2022/05/31 00:44:29;;;;;;;7.43;2.23;;;11.80;65.60;;;;;;4876686;29;20495;-74
2022/05/31 00:46:59;;;;;;;4.73;2.20;;;11.80;65.60;;;;;;4885130;29;20493;-74
2022/05/31 00:49:33;;;;;;;4.30;2.10;;;11.80;65.60;;;;;;4868742;29;20522;-74
2022/05/31 00:52:14;;;;;;;4.83;2.40;;;11.80;65.60;;;;;;4862520;29;20462;-74
2022/05/31 00:54:49;;;;;;;5.03;2.20;;;11.70;65.60;;;;;;4867630;29;20554;-74
2022/05/31 00:57:19;;;;;;;6.50;2.37;;;11.70;65.40;;;;;;4883058;29;20477;-73
2022/05/31 00:59:53;;;;;;;4.60;2.50;;;11.60;65.60;;;;;;4869895;29;20489;-73
2022/05/31 01:02:21;;;;;;;4.50;2.30;;;11.60;65.60;;;;;;4881409;29;20518;-73
2022/05/31 01:04:55;;;;;;;4.47;2.30;;;11.60;65.60;;;;;;4866630;29;20490;-74
2022/05/31 01:07:24;;;;;;;4.77;2.23;;;11.60;65.60;;;;;;4864248;29;20987;-74
2022/05/31 01:09:53;;;;;;;5.23;2.00;;;11.50;65.60;;;;;;4864246;29;21015;-74
2022/05/31 01:12:42;;;;;;;6.90;2.07;;;11.50;65.70;;;;;;4882146;29;20469;-74
2022/05/31 01:15:47;;;;;;;5.80;2.33;;;11.50;65.70;;;;;;4889630;29;20530;-74
2022/05/31 01:18:34;;;;;;;4.00;1.93;;;11.50;65.70;;;;;;4885685;29;20987;-74
2022/05/31 01:21:35;;;;;;;5.13;2.20;;;11.40;65.70;;;;;;4883094;29;21023;-73
2022/05/31 01:24:17;;;;;;;6.33;2.27;;;11.40;65.70;;;;;;4856642;29;20502;-73
2022/05/31 01:26:53;;;;;;;4.40;2.37;;;11.40;65.80;;;;;;4851591;29;20467;-73
2022/05/31 01:29:24;;;;;;;6.13;2.53;;;11.30;65.80;;;;;;4880971;29;20455;-74
2022/05/31 01:31:58;;;;;;;4.67;2.10;;;11.30;66.00;;;;;;4864341;29;20494;-74
2022/05/31 01:34:30;;;;;;;5.10;2.10;;;11.30;65.80;;;;;;4889446;29;20954;-74
2022/05/31 01:37:01;;;;;;;4.83;2.10;;;11.30;65.80;;;;;;4867032;29;20463;-74
2022/05/31 01:39:39;;;;;;;5.60;2.43;;;11.20;65.90;;;;;;4862279;29;21292;-74
2022/05/31 01:42:12;;;;;;;5.00;2.20;;;11.20;65.90;;;;;;4850494;29;20471;-73
2022/05/31 01:44:44;;;;;;;6.20;2.83;;;11.10;66.10;;;;;;4874952;29;20486;-74
2022/05/31 01:47:13;;;;;;;6.10;2.70;;;11.10;66.10;;;;;;4884170;29;20499;-74
2022/05/31 01:49:45;;;;;;;5.30;2.50;;;11.10;66.20;;;;;;4894072;29;20462;-74
2022/05/31 01:52:14;;;;;;;6.17;3.00;;;11.10;66.30;;;;;;4868934;29;20498;-74
2022/05/31 01:54:44;;;;;;;5.03;2.73;;;11.10;66.30;;;;;;4869725;29;21047;-74
2022/05/31 01:57:14;;;;;;;6.97;2.50;;;11.10;66.30;;;;;;4865217;29;20877;-74
2022/05/31 01:59:55;;;;;;;5.57;2.87;;;11.10;66.20;;;;;;4885583;29;20989;-75
2022/05/31 02:02:24;;;;;;;5.83;2.63;;;11.10;66.20;;;;;;4871974;29;20478;-74
2022/05/31 02:04:54;;;;;;;6.17;2.70;;;11.00;66.30;;;;;;4867580;29;20490;-73
2022/05/31 02:07:26;;;;;;;6.20;2.63;;;11.00;66.30;;;;;;4869582;29;21021;-74
2022/05/31 02:09:56;;;;;;;6.43;2.77;;;11.00;66.40;;;;;;4863839;29;20466;-74
2022/05/31 02:12:31;;;;;;;6.60;2.90;;;11.00;66.40;;;;;;4865941;29;20461;-75
2022/05/31 02:15:18;;;;;;;5.23;2.70;;;11.00;66.30;;;;;;4879512;29;20485;-75
2022/05/31 02:18:19;;;;;;;6.50;3.03;;;11.00;66.30;;;;;;4865782;29;20530;-74
2022/05/31 02:21:13;;;;;;;5.23;2.60;;;11.00;66.30;;;;;;4875959;29;20501;-74
2022/05/31 02:23:46;;;;;;;4.70;2.77;;;11.00;66.30;;;;;;4889473;29;20967;-73
2022/05/31 02:26:14;;;;;;;5.33;2.50;;;10.90;66.30;;;;;;4882801;29;20471;-74
2022/05/31 02:28:42;;;;;;;5.67;2.30;;;10.90;66.40;;;;;;4884202;29;20468;-75
2022/05/31 02:31:10;;;;;;;4.73;2.20;;;10.90;66.30;;;;;;4867997;29;20563;-73
2022/05/31 02:33:38;;;;;;;4.50;2.30;;;10.90;66.30;;;;;;4873249;29;21045;-73
2022/05/31 02:36:06;;;;;;;5.33;2.90;;;10.80;66.40;;;;;;4867409;29;20531;-73
2022/05/31 02:38:34;;;;;;;8.33;2.20;;;10.80;66.50;;;;;;4878776;29;20471;-72
2022/05/31 02:41:04;;;;;;;5.10;2.57;;;10.80;66.60;;;;;;4871719;29;20496;-73
2022/05/31 02:43:32;;;;;;;5.37;2.50;;;10.80;66.70;;;;;;4863648;29;21003;-75
2022/05/31 02:46:00;;;;;;;8.57;2.27;;;10.80;66.80;;;;;;4859179;29;20498;-74
2022/05/31 02:48:28;;;;;;;5.13;2.90;;;10.80;66.80;;;;;;4865519;29;20984;-74
2022/05/31 02:50:56;;;;;;;5.03;2.50;;;10.80;66.80;;;;;;4870202;29;20447;-73
2022/05/31 02:53:24;;;;;;;6.50;2.87;;;10.80;66.90;;;;;;4870758;29;20470;-74
2022/05/31 02:55:52;;;;;;;4.50;2.27;;;10.90;67.00;;;;;;4865617;29;20492;-74
2022/05/31 02:58:50;;;;;;;7.03;2.87;;;10.90;67.10;;;;;;4849779;29;20476;-74
2022/05/31 03:01:38;;;;;;;5.20;2.57;;;10.90;67.10;;;;;;4875508;29;21059;-74
2022/05/31 03:04:26;;;;;;;5.27;2.70;;;11.00;67.10;;;;;;4871188;29;20482;-74
2022/05/31 03:07:13;;;;;;;6.53;2.60;;;10.90;67.10;;;;;;4870851;29;20515;-73
2022/05/31 03:10:04;;;;;;;4.30;2.10;;;10.90;67.00;;;;;;4870650;29;20900;-74
2022/05/31 03:12:34;;;;;;;5.13;2.30;;;10.90;67.10;;;;;;4859520;29;20482;-75
2022/05/31 03:15:08;;;;;;;5.57;2.67;;;10.80;67.10;;;;;;4871677;29;20510;-74
2022/05/31 03:17:38;;;;;;;5.90;2.90;;;10.80;67.10;;;;;;4883868;29;20486;-74
2022/05/31 03:20:11;;;;;;;6.43;2.57;;;10.70;67.30;;;;;;4886943;29;20470;-74
2022/05/31 03:22:44;;;;;;;5.77;2.50;;;10.70;67.40;;;;;;4868459;29;21059;-74
2022/05/31 03:25:16;;;;;;;5.50;2.40;;;10.70;67.40;;;;;;4870246;29;20498;-74
2022/05/31 03:27:45;;;;;;;4.57;2.37;;;10.70;67.40;;;;;;4886619;29;20550;-74
2022/05/31 03:30:15;;;;;;;4.90;2.10;;;10.70;67.50;;;;;;4885470;29;20459;-73
2022/05/31 03:32:45;;;;;;;4.67;2.50;;;10.70;67.50;;;;;;4884397;29;21096;-73
2022/05/31 03:35:13;;;;;;;5.27;2.40;;;10.70;67.50;;;;;;4866279;29;20499;-74
2022/05/31 03:37:42;;;;;;;4.93;2.17;;;10.70;67.50;;;;;;4862806;29;20467;-74
2022/05/31 03:43:13;;;;;;;5.43;2.73;;;10.70;67.60;;;;;;4861593;29;21035;-74
2022/05/31 03:45:48;;;;;;;5.90;3.10;;;10.70;67.60;;;;;;4867782;29;21037;-74
2022/05/31 03:48:37;;;;;;;5.23;2.80;;;10.60;67.60;;;;;;4865884;29;20474;-74
2022/05/31 03:51:06;;;;;;;5.70;3.00;;;10.60;67.50;;;;;;4868200;29;21014;-74
2022/05/31 03:53:35;;;;;;;6.57;2.90;;;10.50;67.70;;;;;;4866214;29;20470;-73
2022/05/31 03:56:06;;;;;;;6.13;3.37;;;10.50;67.90;;;;;;4863761;29;20527;-74
2022/05/31 03:58:37;;;;;;;5.77;3.00;;;10.60;68.00;;;;;;4862469;29;20860;-74
2022/05/31 04:01:20;;;;;;;6.37;3.10;;;10.60;68.10;;;;;;4863089;29;20849;-74
2022/05/31 04:03:50;;;;;;;5.40;2.97;;;10.70;68.20;;;;;;4867513;29;20549;-74
2022/05/31 04:06:18;;;;;;;5.27;2.47;;;10.70;68.30;;;;;;4863824;29;20471;-74
2022/05/31 04:08:47;;;;;;;5.93;3.17;;;10.80;68.30;;;;;;4871372;29;20498;-74
2022/05/31 04:11:15;;;;;;;4.90;2.70;;;10.80;67.80;;;;;;4861135;29;20491;-75
2022/05/31 04:13:43;;;;;;;5.70;2.83;;;10.60;67.80;;;;;;4862648;29;20470;-73
2022/05/31 04:16:35;;;;;;;5.53;3.07;;;10.60;68.10;;;;;;4879790;29;20545;-75
2022/05/31 04:19:05;;;;;;;7.30;2.87;;;10.60;68.30;;;;;;4858604;29;20475;-72
2022/05/31 04:21:33;;;;;;;5.00;2.70;;;10.60;68.40;;;;;;4856208;29;20586;-74
2022/05/31 04:24:08;;;;;;;6.63;3.60;;;10.70;68.60;;;;;;4866438;29;20873;-74
2022/05/31 04:26:44;;;;;;;10.07;7.00;;;10.80;68.80;;;;;;4873490;29;20475;-74
2022/05/31 04:29:31;;;;;;;8.67;4.33;;;10.90;69.00;;;;;;4878765;29;20463;-74
2022/05/31 04:32:18;;;;;;;5.80;3.23;;;11.10;68.90;;;;;;4878647;29;20494;-74
2022/05/31 04:35:08;;;;;;;4.83;2.73;;;11.20;69.00;;;;;;4863307;29;20991;-74
2022/05/31 04:37:36;;;;;;;5.80;2.70;;;11.40;69.00;;;;;;4860033;29;21017;-74
2022/05/31 04:40:12;;;;;;;8.97;2.93;;;11.50;69.10;;;;;;4858287;29;20470;-74
2022/05/31 04:43:18;;;;;;;6.20;2.30;;;11.60;69.00;;;;;;4810507;29;20513;-74
2022/05/31 04:46:13;;;;;;;6.40;2.73;;;11.70;68.90;;;;;;4798126;29;20576;-74
2022/05/31 04:48:51;;;;;;;5.80;2.87;;;11.90;69.10;;;;;;4837165;29;21090;-73
2022/05/31 04:51:19;;;;;;;5.77;3.00;;;12.10;69.20;;;;;;4859777;29;20466;-73
2022/05/31 04:53:54;;;;;;;6.83;3.47;;;12.20;69.10;;;;;;4857450;29;20490;-74
2022/05/31 04:56:37;;;;;;;8.43;3.03;;;12.30;69.00;;;;;;4881169;29;20494;-73
2022/05/31 04:59:08;;;;;;;5.40;3.40;;;12.50;68.90;;;;;;4867553;29;20467;-73
2022/05/31 05:01:37;;;;;;;9.73;3.70;;;12.70;68.90;;;;;;4867252;29;21195;-74
2022/05/31 05:04:14;;;;;;;5.30;2.83;;;12.80;69.00;;;;;;4867512;29;21011;-74
2022/05/31 05:06:50;;;;;;;5.20;2.60;;;13.00;69.00;;;;;;4867632;29;20470;-74
2022/05/31 05:09:20;;;;;;;7.67;2.33;;;13.20;69.00;;;;;;4873551;29;20550;-74
2022/05/31 05:12:10;;;;;;;6.23;3.23;;;13.40;68.90;;;;;;4883280;29;20457;-74
2022/05/31 05:14:43;;;;;;;5.63;3.03;;;13.50;68.80;;;;;;4863689;29;20481;-75
2022/05/31 05:17:16;;;;;;;7.67;3.00;;;13.70;68.80;;;;;;4867827;29;20589;-74
2022/05/31 05:19:49;;;;;;;6.43;2.90;;;13.80;68.80;;;;;;4871939;29;20467;-74
2022/05/31 05:22:18;;;;;;;6.40;2.60;;;14.00;68.70;;;;;;4868249;29;20482;-74
2022/05/31 05:24:46;;;;;;;9.30;3.47;;;14.20;68.80;;;;;;4877467;29;20478;-74
2022/05/31 05:27:32;;;;;;;6.93;3.07;;;14.40;69.30;;;;;;4880545;29;20499;-75
2022/05/31 05:30:39;;;;;;;11.77;3.40;;;14.70;69.90;;;;;;4878243;29;20503;-74
2022/05/31 05:33:20;;;;;;;7.77;2.90;;;15.20;70.40;;;;;;4883400;29;21128;-75
2022/05/31 05:36:12;;;;;;;8.07;3.47;;;16.40;68.70;;;;;;4878020;29;20477;-74
2022/05/31 05:38:41;;;;;;;8.73;2.60;;;17.80;66.10;;;;;;4869454;29;20562;-74
2022/05/31 05:41:39;;;;;;;8.83;2.77;;;19.00;63.80;;;;;;4848199;29;20484;-74
2022/05/31 05:44:36;;;;;;;6.50;2.97;;;20.10;62.00;;;;;;4890249;29;20504;-74
2022/05/31 05:47:06;;;;;;;6.67;3.30;;;21.10;60.40;;;;;;4859347;29;20487;-74
2022/05/31 05:49:35;;;;;;;7.13;3.00;;;21.90;59.10;;;;;;4882572;29;20558;-74
2022/05/31 05:52:19;;;;;;;6.80;3.07;;;22.50;58.40;;;;;;4866941;29;21178;-74
2022/05/31 05:55:07;;;;;;;5.40;2.50;;;22.90;57.40;;;;;;4873531;29;20580;-73
2022/05/31 05:57:55;;;;;;;9.70;3.20;;;23.30;56.60;;;;;;4872868;29;20494;-73
2022/05/31 06:00:46;;;;;;;6.13;2.50;;;23.50;56.00;;;;;;4877797;29;20620;-74
2022/05/31 06:03:21;;;;;;;7.90;3.30;;;23.60;55.40;;;;;;4866990;29;21093;-74
2022/05/31 06:05:58;;;;;;;6.30;2.90;;;23.50;54.60;;;;;;4866005;29;20460;-72
2022/05/31 06:08:32;;;;;;;5.63;2.60;;;23.50;54.60;;;;;;4872354;29;20476;-72
2022/05/31 06:11:09;;;;;;;7.30;3.50;;;23.00;53.70;;;;;;4879651;29;20498;-72
2022/05/31 06:13:41;;;;;;;6.60;3.47;;;22.00;53.00;;;;;;4859393;29;20548;-74
2022/05/31 06:16:10;;;;;;;4.80;2.57;;;20.60;53.50;;;;;;4865849;29;21127;-74
2022/05/31 06:18:45;;;;;;;6.73;2.80;;;19.50;55.00;;;;;;4858407;29;20471;-75
2022/05/31 06:21:16;;;;;;;7.40;2.90;;;18.90;56.60;;;;;;4880236;29;20953;-74
2022/05/31 06:23:49;;;;;;;4.80;2.67;;;18.60;57.60;;;;;;4872908;29;20479;-74
2022/05/31 06:26:18;;;;;;;4.53;2.43;;;18.30;57.80;;;;;;4871825;29;20479;-74
2022/05/31 06:28:56;;;;;;;6.87;2.87;;;18.10;58.10;;;;;;4874547;29;20462;-74
2022/05/31 06:31:24;;;;;;;5.00;2.60;;;17.60;58.40;;;;;;4884434;29;20526;-73
2022/05/31 06:33:52;;;;;;;8.13;2.87;;;17.20;58.80;;;;;;4874547;29;21003;-73
2022/05/31 06:36:25;;;;;;;6.10;3.10;;;16.90;59.20;;;;;;4872840;29;20462;-73
2022/05/31 06:38:55;;;;;;;7.77;2.90;;;16.50;59.90;;;;;;4869173;29;20462;-73
2022/05/31 06:41:23;;;;;;;9.63;3.43;;;16.20;60.30;;;;;;4890617;29;20473;-73
2022/05/31 06:44:09;;;;;;;10.53;3.07;;;15.90;60.80;;;;;;4883111;29;20469;-74
2022/05/31 06:46:57;;;;;;;8.40;3.67;;;15.70;61.80;;;;;;4888070;29;20498;-73
2022/05/31 06:49:58;;;;;;;9.13;3.50;;;15.60;62.00;;;;;;4882003;29;20481;-73
2022/05/31 06:58:44;;;;;;;22.17;3.83;;;15.30;63.20;;;;;;4872041;29;20462;-73
2022/05/31 07:01:12;;;;;;;8.10;3.07;;;15.20;63.70;;;;;;4871113;29;20545;-73
2022/05/31 07:03:40;;;;;;;8.40;3.30;;;15.20;63.90;;;;;;4873116;29;20490;-73
2022/05/31 07:06:08;;;;;;;5.73;2.80;;;15.30;64.60;;;;;;4868180;29;20968;-74
2022/05/31 07:08:39;;;;;;;5.77;3.20;;;15.30;64.50;;;;;;4874770;29;20517;-73
2022/05/31 07:11:25;;;;;;;5.97;3.00;;;15.40;64.50;;;;;;4867818;29;20503;-74
2022/05/31 07:14:16;;;;;;;5.63;2.40;;;15.40;64.50;;;;;;4880112;29;20990;-74
2022/05/31 07:17:08;;;;;;;7.00;3.30;;;15.50;64.70;;;;;;4887530;29;20484;-74
2022/05/31 07:19:46;;;;;;;5.83;3.10;;;15.60;64.90;;;;;;4872339;29;20458;-73
2022/05/31 07:22:33;;;;;;;5.90;2.83;;;15.60;65.10;;;;;;4866509;29;20494;-74
2022/05/31 07:25:28;;;;;;;7.00;3.30;;;15.70;64.90;;;;;;4881455;29;21140;-74
2022/05/31 07:28:06;;;;;;;6.27;2.30;;;15.70;64.90;;;;;;4871954;29;20549;-74
2022/05/31 07:30:35;;;;;;;10.13;3.00;;;15.70;65.30;;;;;;4869701;29;20471;-74
2022/05/31 07:33:08;;;;;;;6.13;2.97;;;15.70;65.30;;;;;;4869544;29;20490;-73
2022/05/31 07:35:59;;;;;;;5.70;3.00;;;15.80;65.40;;;;;;4879232;29;20470;-73
2022/05/31 07:38:28;;;;;;;5.70;3.10;;;15.80;65.40;;;;;;4858387;29;22560;-73
2022/05/31 07:40:55;;;;;;;5.80;3.00;;;15.90;65.40;;;;;;4871503;29;20577;-73
2022/05/31 07:43:25;;;;;;;6.80;3.00;;;15.90;65.40;;;;;;4868993;29;20525;-73
2022/05/31 07:46:01;;;;;;;6.70;3.90;;;16.00;65.50;;;;;;4871303;29;20517;-73
2022/05/31 07:48:29;;;;;;;6.57;3.37;;;16.00;65.60;;;;;;4869894;29;20990;-74
2022/05/31 07:50:57;;;;;;;5.20;2.63;;;16.10;65.70;;;;;;4869878;29;20523;-74
2022/05/31 07:53:46;;;;;;;5.10;2.87;;;16.10;65.70;;;;;;4878219;29;20503;-73
2022/05/31 07:56:40;;;;;;;6.30;3.20;;;16.20;65.80;;;;;;4871824;29;20470;-74
2022/05/31 07:59:36;;;;;;;7.17;3.13;;;16.20;66.00;;;;;;4863032;29;20466;-73
2022/05/31 08:02:42;;;;;;;5.43;2.47;;;16.30;66.10;;;;;;4888589;29;20630;-73
2022/05/31 08:05:10;;;;;;;6.20;2.07;;;16.40;66.00;;;;;;4884256;29;20890;-73
2022/05/31 08:07:39;;;;;;;7.70;2.50;;;16.50;65.90;;;;;;4889327;29;20459;-74
2022/05/31 08:10:08;;;;;;;5.00;2.60;;;16.60;65.80;;;;;;4868119;29;20555;-74
2022/05/31 08:12:35;;;;;;;5.00;2.60;;;16.60;65.80;;;;;;4878722;29;20461;-74
2022/05/31 08:15:06;;;;;;;13.10;2.97;;;16.70;65.60;;;;;;4883452;29;20470;-74
2022/05/31 08:17:34;;;;;;;5.50;2.63;;;16.70;65.80;;;;;;4891598;29;20458;-74
2022/05/31 08:20:03;;;;;;;7.90;3.00;;;16.80;65.70;;;;;;4886372;29;20467;-74
2022/05/31 08:22:33;;;;;;;5.83;2.80;;;16.90;65.80;;;;;;4884125;29;20470;-73
2022/05/31 08:25:00;;;;;;;5.03;2.30;;;16.90;65.80;;;;;;4882188;29;21288;-73
2022/05/31 08:27:28;;;;;;;8.23;2.67;;;17.00;65.90;;;;;;4890566;29;20450;-73
2022/05/31 08:29:56;;;;;;;5.43;2.70;;;17.10;65.90;;;;;;4889916;29;20465;-73
2022/05/31 08:32:26;;;;;;;8.23;3.00;;;17.20;65.60;;;;;;4889495;29;20886;-73
2022/05/31 08:34:54;;;;;;;6.20;2.63;;;17.30;65.50;;;;;;4889711;29;20482;-73
2022/05/31 08:37:22;;;;;;;6.47;4.17;;;17.30;65.20;;;;;;4884279;29;20470;-75
2022/05/31 08:39:50;;;;;;;7.90;2.70;;;17.40;65.30;;;;;;4892281;29;21027;-73
2022/05/31 08:42:22;;;;;;;7.83;2.70;;;17.40;65.20;;;;;;4884849;29;20459;-74
2022/05/31 08:44:59;;;;;;;6.70;3.00;;;17.50;65.10;;;;;;4893178;29;20533;-74
2022/05/31 08:47:39;;;;;;;4.77;2.50;;;17.50;65.00;;;;;;4885247;29;20478;-74
2022/05/31 08:53:15;;;;;;;6.40;3.00;;;17.60;65.00;;;;;;4872769;29;21091;-74
2022/05/31 08:58:41;;;;;;;6.30;3.00;;;17.60;64.90;;;;;;4873209;29;20497;-74
2022/05/31 09:01:13;;;;;;;7.67;3.20;;;17.70;65.00;;;;;;4876397;29;20478;-74
2022/05/31 09:03:47;;;;;;;6.70;3.40;;;17.70;64.80;;;;;;4890584;29;20486;-74
2022/05/31 09:06:22;;;;;;;11.07;3.10;;;17.80;64.80;;;;;;4884360;29;20453;-73
2022/05/31 09:09:01;;;;;;;6.17;3.60;;;17.90;64.70;;;;;;4886804;29;20501;-73
2022/05/31 09:11:33;;;;;;;8.17;3.30;;;17.90;64.60;;;;;;4881299;29;20470;-74
2022/05/31 09:14:11;;;;;;;12.40;3.20;;;18.00;64.50;;;;;;4872110;29;20483;-73
2022/05/31 09:16:46;;;;;;;6.80;3.70;;;18.00;64.50;;;;;;4890107;29;20486;-74
2022/05/31 09:19:21;;;;;;;9.17;3.10;;;18.00;64.50;;;;;;4889677;29;20980;-74
2022/05/31 09:21:50;;;;;;;5.83;3.60;;;18.10;64.50;;;;;;4885249;29;20468;-74
2022/05/31 09:24:20;;;;;;;6.17;2.90;;;18.10;64.40;;;;;;4890322;29;20497;-73
2022/05/31 09:27:07;;;;;;;5.90;3.30;;;18.10;64.40;;;;;;4885598;29;20485;-74
2022/05/31 09:30:01;;;;;;;8.60;3.50;;;18.10;64.20;;;;;;4890483;29;20963;-73
2022/05/31 09:32:45;;;;;;;8.77;3.70;;;18.20;64.30;;;;;;4886737;29;20478;-74
2022/05/31 09:35:30;;;;;;;6.23;3.27;;;18.30;64.20;;;;;;4883192;29;20487;-73
2022/05/31 09:38:15;;;;;;;6.97;3.30;;;18.30;64.20;;;;;;4880393;29;20466;-74
2022/05/31 09:40:46;;;;;;;5.60;2.90;;;18.30;64.30;;;;;;4886563;29;20452;-74
2022/05/31 09:43:24;;;;;;;6.50;3.67;;;18.40;64.20;;;;;;4880242;29;20472;-74
2022/05/31 09:46:01;;;;;;;10.40;4.10;;;18.40;64.10;;;;;;4888359;29;21259;-74
2022/05/31 09:48:29;;;;;;;8.00;4.30;;;18.50;64.00;;;;;;4888435;29;21003;-74
2022/05/31 09:51:10;;;;;;;11.13;4.30;;;18.50;63.80;;;;;;4891207;29;20446;-74
2022/05/31 09:59:53;;;;;;;7.03;4.03;;;18.60;63.90;;;;;;4890239;29;20455;-74
2022/05/31 10:02:42;;;;;;;9.83;3.47;;;18.70;64.00;;;;;;4885240;29;20482;-74
2022/05/31 10:05:16;;;;;;;6.23;3.87;;;18.80;64.00;;;;;;4875222;29;20506;-74
2022/05/31 10:07:47;;;;;;;8.40;3.90;;;18.90;64.00;;;;;;4893822;29;20956;-74
2022/05/31 10:10:16;;;;;;;8.20;3.70;;;19.00;63.80;;;;;;4888067;29;20853;-74
2022/05/31 10:12:52;;;;;;;5.73;3.67;;;19.10;63.70;;;;;;4881304;29;20471;-74
2022/05/31 10:15:50;;;;;;;7.90;3.70;;;19.10;63.60;;;;;;4887575;29;20507;-75
2022/05/31 10:18:29;;;;;;;7.60;3.70;;;19.20;63.50;;;;;;4853783;29;20590;-73
2022/05/31 10:20:59;;;;;;;8.47;4.03;;;19.30;63.20;;;;;;4889236;29;20463;-74
2022/05/31 10:23:36;;;;;;;7.43;3.03;;;19.30;63.10;;;;;;4872449;29;20540;-74
2022/05/31 10:26:31;;;;;;;6.33;3.60;;;19.40;63.10;;;;;;4889795;29;21034;-74
2022/05/31 10:29:20;;;;;;;6.73;3.30;;;19.50;63.10;;;;;;4864216;29;20496;-74
2022/05/31 10:32:23;;;;;;;5.50;3.47;;;19.50;63.10;;;;;;4873165;29;20484;-74
2022/05/31 10:35:07;;;;;;;7.37;3.53;;;19.60;63.10;;;;;;4894063;29;20490;-74
2022/05/31 10:37:35;;;;;;;5.67;3.37;;;19.70;62.80;;;;;;4878371;29;20477;-73
2022/05/31 10:40:08;;;;;;;5.07;2.93;;;19.70;62.70;;;;;;4893290;29;20823;-74
2022/05/31 10:42:41;;;;;;;5.80;3.07;;;19.70;62.70;;;;;;4887890;29;20469;-74
2022/05/31 10:45:20;;;;;;;8.70;3.03;;;19.80;62.50;;;;;;4894402;29;20503;-74
2022/05/31 10:47:48;;;;;;;9.03;3.00;;;19.90;62.50;;;;;;4890175;29;20469;-74
2022/05/31 10:50:17;;;;;;;7.70;3.60;;;19.90;62.40;;;;;;4894806;29;20810;-75
2022/05/31 10:52:53;;;;;;;5.40;2.60;;;20.00;62.40;;;;;;4887940;29;20461;-74
2022/05/31 10:55:33;;;;;;;8.30;3.53;;;20.00;62.60;;;;;;4884937;29;20553;-74
2022/05/31 10:58:15;;;;;;;9.73;3.20;;;20.10;62.80;;;;;;4879373;29;20475;-74
2022/05/31 11:00:48;;;;;;;6.30;3.30;;;20.20;62.40;;;;;;4888594;29;20482;-74
2022/05/31 11:03:28;;;;;;;8.70;3.20;;;20.30;62.50;;;;;;4892982;29;20580;-73
2022/05/31 11:06:14;;;;;;;6.37;2.83;;;20.30;62.50;;;;;;4872758;29;20499;-74
2022/05/31 11:11:51;;;;;;;5.97;2.90;;;20.40;62.30;;;;;;4862210;29;20462;-74
2022/05/31 11:14:44;;;;;;;6.73;3.00;;;20.40;61.80;;;;;;4883998;29;21237;-74
2022/05/31 11:17:29;;;;;;;8.17;3.30;;;20.30;61.90;;;;;;4882990;29;20490;-74
2022/05/31 11:20:03;;;;;;;6.30;2.50;;;20.30;61.90;;;;;;4885485;29;20558;-74
2022/05/31 11:22:50;;;;;;;5.50;3.00;;;20.20;61.70;;;;;;4867891;29;20481;-73
2022/05/31 11:25:33;;;;;;;6.20;2.30;;;20.20;61.80;;;;;;4885890;29;20479;-74
2022/05/31 11:28:20;;;;;;;4.90;2.57;;;20.10;61.80;;;;;;4882860;29;20452;-73
2022/05/31 11:31:05;;;;;;;4.10;2.00;;;20.10;62.00;;;;;;4888568;29;20481;-74
2022/05/31 11:34:14;;;;;;;5.67;2.50;;;20.10;62.00;;;;;;4892570;29;20469;-74
2022/05/31 11:36:54;;;;;;;4.97;2.30;;;20.20;61.70;;;;;;4886811;29;20464;-75
2022/05/31 11:39:38;;;;;;;5.90;2.20;;;20.20;61.50;;;;;;4866981;29;20901;-74
2022/05/31 11:42:18;;;;;;;6.00;2.20;;;20.20;61.30;;;;;;4884282;29;20461;-74
2022/05/31 11:45:05;;;;;;;4.67;2.50;;;20.30;61.40;;;;;;4893253;29;21027;-74
2022/05/31 11:48:02;;;;;;;7.93;2.87;;;20.30;61.40;;;;;;4879386;29;20498;-74
2022/05/31 11:50:44;;;;;;;5.67;2.80;;;20.40;61.20;;;;;;4892416;29;20934;-73
2022/05/31 11:53:37;;;;;;;6.53;1.87;;;20.50;61.10;;;;;;4879791;29;20466;-74
2022/05/31 11:56:10;;;;;;;3.90;2.00;;;20.60;61.30;;;;;;4881981;29;20515;-74
2022/05/31 11:58:48;;;;;;;5.43;2.10;;;20.80;61.20;;;;;;4891300;29;20468;-74
2022/05/31 12:01:21;;;;;;;4.47;1.63;;;20.90;60.80;;;;;;4884972;29;20492;-74
2022/05/31 12:04:03;;;;;;;4.10;1.60;;;20.90;60.30;;;;;;4889567;29;20467;-73
2022/05/31 12:06:38;;;;;;;7.97;2.23;;;21.00;60.20;;;;;;4876250;29;20492;-73
2022/05/31 12:09:14;;;;;;;7.20;2.37;;;21.00;59.90;;;;;;4854630;29;20466;-73
2022/05/31 12:11:49;;;;;;;4.50;1.43;;;21.00;59.30;;;;;;4874781;29;20472;-73
2022/05/31 12:14:19;;;;;;;5.57;1.67;;;20.90;58.90;;;;;;4874371;29;20497;-73
2022/05/31 12:16:49;;;;;;;4.27;1.40;;;20.90;58.40;;;;;;4875198;29;21008;-73
2022/05/31 12:19:26;;;;;;;4.73;1.80;;;20.90;58.30;;;;;;4876148;29;20524;-71
2022/05/31 12:21:59;;;;;;;3.80;1.50;;;21.00;58.10;;;;;;4885268;29;20460;-73
2022/05/31 12:24:32;;;;;;;4.77;1.60;;;21.00;57.90;;;;;;4884444;29;20494;-72
2022/05/31 12:27:06;;;;;;;4.03;1.30;;;21.00;57.90;;;;;;4881179;29;20540;-73
2022/05/31 12:29:44;;;;;;;5.00;1.53;;;21.10;57.40;;;;;;4886910;29;20490;-71
2022/05/31 12:32:41;;;;;;;5.70;1.50;;;21.20;57.10;;;;;;4869895;29;20498;-73
2022/05/31 12:35:12;;;;;;;3.60;1.20;;;21.20;57.00;;;;;;4881197;29;20479;-72
2022/05/31 12:37:54;;;;;;;5.07;1.30;;;21.20;56.90;;;;;;4881588;29;21040;-73
2022/05/31 12:40:29;;;;;;;3.90;1.40;;;21.30;56.20;;;;;;4867912;29;20474;-73
2022/05/31 12:42:57;;;;;;;6.47;1.30;;;21.20;55.90;;;;;;4881680;29;21066;-73
2022/05/31 12:45:39;;;;;;;3.80;1.17;;;21.20;55.80;;;;;;4886924;29;20978;-72
2022/05/31 12:48:25;;;;;;;5.03;1.73;;;21.20;55.70;;;;;;4878100;29;21000;-72
2022/05/31 12:51:19;;;;;;;8.20;1.67;;;21.10;54.50;;;;;;4890672;29;21291;-72
2022/05/31 12:54:03;;;;;;;4.30;1.30;;;21.10;55.00;;;;;;4874604;29;20493;-72
2022/05/31 12:56:40;;;;;;;5.33;1.10;;;21.10;54.40;;;;;;4874153;29;20995;-72
2022/05/31 12:59:09;;;;;;;6.37;2.03;;;21.10;54.10;;;;;;4877136;29;20971;-72
2022/05/31 13:01:44;;;;;;;3.80;1.30;;;21.10;53.80;;;;;;4874548;29;20483;-72
2022/05/31 13:04:28;;;;;;;5.30;1.60;;;21.20;53.80;;;;;;4882678;29;20516;-73
2022/05/31 13:07:08;;;;;;;4.80;1.60;;;21.20;53.40;;;;;;4870748;29;20523;-72
2022/05/31 13:09:42;;;;;;;4.30;1.50;;;21.30;53.40;;;;;;4858206;29;20473;-73
2022/05/31 13:20:56;;;;;;;3.53;1.20;;;21.30;51.40;;;;;;4883627;29;20455;-72
2022/05/31 13:23:28;;;;;;;4.80;1.67;;;21.30;51.50;;;;;;4875807;29;20577;-72
2022/05/31 13:26:00;;;;;;;5.60;1.60;;;21.20;52.00;;;;;;4878433;29;20485;-72
2022/05/31 13:28:32;;;;;;;7.83;1.43;;;21.30;52.00;;;;;;4886485;29;20993;-72
2022/05/31 13:31:02;;;;;;;4.83;1.33;;;21.30;52.10;;;;;;4878448;29;20476;-72
2022/05/31 13:33:32;;;;;;;4.10;1.30;;;21.30;51.50;;;;;;4891618;29;20463;-72
2022/05/31 13:36:16;;;;;;;4.10;1.30;;;21.30;51.40;;;;;;4879082;29;20480;-71
2022/05/31 13:38:47;;;;;;;5.57;1.13;;;21.20;50.80;;;;;;4887149;29;20471;-73
2022/05/31 13:41:18;;;;;;;4.20;1.50;;;21.10;51.00;;;;;;4880503;29;20474;-71
2022/05/31 13:43:51;;;;;;;5.30;1.80;;;21.10;50.90;;;;;;4885281;29;20470;-73
2022/05/31 13:46:24;;;;;;;4.90;1.43;;;21.20;51.10;;;;;;4892383;29;20483;-72
2022/05/31 13:48:56;;;;;;;6.17;1.40;;;21.30;50.70;;;;;;4886254;29;20470;-72
2022/05/31 13:51:27;;;;;;;7.70;2.20;;;21.30;50.70;;;;;;4889516;29;20455;-72
2022/05/31 13:54:06;;;;;;;4.43;1.40;;;21.30;50.50;;;;;;4885807;29;20474;-72
2022/05/31 13:56:35;;;;;;;4.70;1.27;;;21.30;50.40;;;;;;4890791;29;20451;-73
2022/05/31 13:59:04;;;;;;;4.27;1.60;;;21.40;50.20;;;;;;4880891;29;20470;-72
2022/05/31 14:01:36;;;;;;;4.83;1.77;;;21.40;50.30;;;;;;4890734;29;20475;-74
2022/05/31 14:04:11;;;;;;;3.80;1.30;;;21.30;50.10;;;;;;4887374;29;20479;-72
2022/05/31 14:06:42;;;;;;;4.20;1.50;;;21.30;50.10;;;;;;4892714;29;21012;-72